Terminal Aerodrome Forecast
Issued by NWS New Orleans/Baton Rouge, LA

Home | Current Version | Previous Version | Text Only | Print | Product List | Glossary On
Versions: 1 2 3 4 5 6 7 8 9 10 11 12 13 14 15 16
000
FTUS44 KLIX 241743
TAFNEW
TAF
KNEW 241743Z 2418/2518 17015G22KT P6SM VCSH SCT025 BKN045
     FM250000 18012KT P6SM SCT015 BKN035
     FM250200 18010KT P6SM SCT015 BKN025
     FM250500 19009KT P6SM VCSH BKN020
     FM250800 20008KT P6SM OVC015 PROB30 2508/2512 4SM SHRA OVC008
     FM251200 21007KT 5SM -SHRA VCTS OVC020CB
     FM251400 26007KT 5SM -SHRA VCTS OVC020CB=

USA.gov is the U.S. government's official web portal to all federal, state and local government web resources and services.